Time;durP1;ratioP1;P1;durP2;ratioP2;P2;SDS_P1;SDS_P2;PMS_P1;PMS_P2;Temp;Humidity;BMP_temperature;BMP_pressure;BME280_temperature;BME280_humidity;BME280_pressure;Samples;Min_cycle;Max_cycle;Signal;HPM_P1;HPM_P2
2024/01/28 00:02:16;;;;;;;74.80;47.30;;;19.30;71.90;;;;;;5017270;28;20029;-65
2024/01/28 00:04:41;;;;;;;77.50;50.72;;;19.30;72.00;;;;;;5022820;28;20437;-66
2024/01/28 00:07:07;;;;;;;70.85;46.55;;;19.30;72.00;;;;;;5025121;28;20022;-67
2024/01/28 00:09:32;;;;;;;75.88;49.15;;;19.30;72.00;;;;;;5015585;28;20037;-68
2024/01/28 00:11:58;;;;;;;84.47;49.17;;;19.30;72.10;;;;;;4999013;28;20037;-66
2024/01/28 00:14:24;;;;;;;78.80;48.40;;;19.30;72.20;;;;;;5024738;28;20397;-67
2024/01/28 00:16:49;;;;;;;72.32;46.50;;;19.40;72.30;;;;;;5022358;28;20053;-67
2024/01/28 00:19:15;;;;;;;69.78;44.88;;;19.40;72.30;;;;;;5016679;28;20026;-67
2024/01/28 00:21:41;;;;;;;71.78;45.65;;;19.40;72.20;;;;;;5027914;28;20030;-66
2024/01/28 00:24:07;;;;;;;64.45;42.53;;;19.30;72.50;;;;;;5015552;28;20121;-67
2024/01/28 00:26:39;;;;;;;66.70;41.80;;;19.40;72.20;;;;;;5023470;28;20044;-66
2024/01/28 00:29:06;;;;;;;58.92;39.28;;;19.30;72.20;;;;;;5024484;28;20060;-67
2024/01/28 00:31:32;;;;;;;60.53;39.25;;;19.30;72.30;;;;;;5014557;28;20022;-68
2024/01/28 00:33:59;;;;;;;67.32;40.75;;;19.30;72.50;;;;;;5028150;28;20018;-71
2024/01/28 00:36:25;;;;;;;71.68;41.30;;;19.30;72.40;;;;;;5018934;28;20030;-66
2024/01/28 00:38:50;;;;;;;63.97;40.72;;;19.30;72.50;;;;;;5020879;28;20097;-66
2024/01/28 00:41:26;;;;;;;67.97;38.42;;;19.30;72.80;;;;;;5017659;28;20109;-66
2024/01/28 00:43:52;;;;;;;57.80;36.05;;;19.40;72.70;;;;;;5027578;28;20509;-67
2024/01/28 00:46:18;;;;;;;55.88;35.17;;;19.40;72.80;;;;;;5016346;28;20052;-68
2024/01/28 00:48:44;;;;;;;56.70;35.95;;;19.30;72.80;;;;;;5021755;28;20029;-66
2024/01/28 00:51:09;;;;;;;51.15;33.38;;;19.40;73.10;;;;;;5023811;28;20025;-67
2024/01/28 00:53:35;;;;;;;57.53;36.90;;;19.30;73.30;;;;;;5014849;28;20073;-66
2024/01/28 00:56:00;;;;;;;49.30;32.92;;;19.40;73.40;;;;;;5027434;28;20025;-65
2024/01/28 00:58:29;;;;;;;49.85;31.88;;;19.40;73.40;;;;;;5018336;28;20017;-66
2024/01/28 01:00:54;;;;;;;48.90;31.35;;;19.40;73.80;;;;;;5019431;28;20076;-67
2024/01/28 01:03:20;;;;;;;53.38;33.40;;;19.40;73.90;;;;;;5026080;28;20025;-68
2024/01/28 01:05:46;;;;;;;49.50;31.98;;;19.40;74.10;;;;;;5014454;28;20106;-66
2024/01/28 01:08:12;;;;;;;46.90;30.25;;;19.40;74.00;;;;;;5025721;28;20018;-67
2024/01/28 01:10:37;;;;;;;43.97;27.88;;;19.40;74.10;;;;;;5019442;28;20017;-68
2024/01/28 01:13:03;;;;;;;49.45;30.02;;;19.40;74.30;;;;;;5018189;28;20508;-67
2024/01/28 01:15:32;;;;;;;48.00;29.38;;;19.40;74.40;;;;;;5027171;28;20523;-67
2024/01/28 01:17:58;;;;;;;46.78;29.48;;;19.40;74.30;;;;;;5014561;28;20064;-67
2024/01/28 01:20:23;;;;;;;43.58;29.13;;;19.40;74.30;;;;;;5023193;28;20013;-67
2024/01/28 01:22:49;;;;;;;55.30;29.02;;;19.40;74.70;;;;;;5021447;28;20033;-67
2024/01/28 01:25:15;;;;;;;50.70;29.00;;;19.40;74.70;;;;;;5016798;28;20041;-67
2024/01/28 01:27:41;;;;;;;50.45;29.27;;;19.40;74.90;;;;;;5027263;28;20521;-65
2024/01/28 01:30:08;;;;;;;56.70;32.35;;;19.40;74.40;;;;;;5015070;28;20021;-67
2024/01/28 01:32:37;;;;;;;55.88;34.05;;;19.40;74.20;;;;;;5022339;28;20037;-65
2024/01/28 01:35:02;;;;;;;58.70;38.83;;;19.40;74.40;;;;;;5023763;28;20384;-65
2024/01/28 01:37:28;;;;;;;56.03;35.28;;;19.40;74.20;;;;;;5021621;28;20026;-65
2024/01/28 01:39:54;;;;;;;59.35;35.13;;;19.40;74.80;;;;;;5033170;28;20014;-65
2024/01/28 01:42:20;;;;;;;61.88;40.38;;;19.40;74.60;;;;;;5023397;28;20059;-65
2024/01/28 01:44:46;;;;;;;63.63;41.90;;;19.40;74.40;;;;;;5027239;28;20080;-66
2024/01/28 01:47:12;;;;;;;60.15;38.20;;;19.40;74.30;;;;;;5030859;28;20544;-67
2024/01/28 01:49:38;;;;;;;58.03;36.67;;;19.40;74.60;;;;;;5020692;28;20058;-67
2024/01/28 01:52:06;;;;;;;58.80;40.53;;;19.40;74.60;;;;;;5032307;28;20057;-67
2024/01/28 01:54:32;;;;;;;59.85;38.85;;;19.40;74.30;;;;;;5025137;28;20021;-66
2024/01/28 01:56:58;;;;;;;65.00;40.78;;;19.40;74.50;;;;;;5025335;28;20026;-67
2024/01/28 01:59:24;;;;;;;61.28;41.28;;;19.40;74.40;;;;;;5032593;28;20044;-68
2024/01/28 02:01:54;;;;;;;70.95;42.38;;;19.40;74.60;;;;;;5020031;28;20030;-67
2024/01/28 02:04:20;;;;;;;59.47;41.40;;;19.40;74.30;;;;;;5030503;28;20060;-68
2024/01/28 02:06:46;;;;;;;60.83;40.45;;;19.40;74.10;;;;;;5026061;28;20076;-68
2024/01/28 02:09:12;;;;;;;66.32;43.47;;;19.40;74.00;;;;;;5023302;28;20026;-67
2024/01/28 02:11:38;;;;;;;63.85;43.05;;;19.40;74.10;;;;;;5033048;28;20025;-68
2024/01/28 02:14:04;;;;;;;74.45;44.85;;;19.40;74.10;;;;;;5021367;28;20374;-67
2024/01/28 02:16:30;;;;;;;65.60;45.75;;;19.40;74.00;;;;;;5029175;28;20105;-68
2024/01/28 02:18:55;;;;;;;64.63;43.95;;;19.30;74.00;;;;;;5028494;28;20039;-67
2024/01/28 02:21:21;;;;;;;63.20;41.63;;;19.40;74.00;;;;;;5021449;28;20084;-67
2024/01/28 02:23:46;;;;;;;61.35;41.05;;;19.30;74.00;;;;;;5033215;28;20026;-68
2024/01/28 02:26:12;;;;;;;63.28;42.63;;;19.30;74.00;;;;;;5022155;28;20437;-67
2024/01/28 02:28:38;;;;;;;72.70;44.55;;;19.30;74.00;;;;;;5027970;28;20054;-67
2024/01/28 02:31:03;;;;;;;62.05;41.58;;;19.30;74.00;;;;;;5028624;28;20036;-67
2024/01/28 02:33:29;;;;;;;65.35;40.97;;;19.40;74.10;;;;;;5021031;28;20029;-67
2024/01/28 02:35:55;;;;;;;58.75;40.05;;;19.40;74.20;;;;;;5033331;28;20025;-69
2024/01/28 02:38:20;;;;;;;62.70;42.10;;;19.30;74.20;;;;;;5023187;28;20521;-68
2024/01/28 02:40:49;;;;;;;58.90;39.13;;;19.30;74.20;;;;;;5026046;28;20103;-68
2024/01/28 02:43:14;;;;;;;58.42;39.17;;;19.30;74.10;;;;;;5030909;28;20021;-68
2024/01/28 02:45:40;;;;;;;61.13;40.95;;;19.30;74.10;;;;;;5035660;28;20040;-67
2024/01/28 02:48:06;;;;;;;63.72;41.42;;;19.30;74.20;;;;;;5018079;28;20512;-68
2024/01/28 02:50:32;;;;;;;59.08;41.45;;;19.30;74.30;;;;;;5024710;28;20045;-67
2024/01/28 02:52:57;;;;;;;60.88;40.47;;;19.40;74.50;;;;;;5025155;28;20370;-67
2024/01/28 02:55:23;;;;;;;62.10;40.80;;;19.40;74.30;;;;;;5018596;28;20105;-67
2024/01/28 02:57:49;;;;;;;61.05;39.17;;;19.40;74.30;;;;;;5030179;28;20105;-67
2024/01/28 03:00:15;;;;;;;53.90;36.78;;;19.40;74.60;;;;;;5018398;28;20539;-66
2024/01/28 03:02:40;;;;;;;55.75;36.53;;;19.40;74.60;;;;;;5024112;28;20033;-67
2024/01/28 03:05:09;;;;;;;61.60;40.35;;;19.40;74.70;;;;;;5024944;28;20025;-67
2024/01/28 03:07:35;;;;;;;57.38;36.67;;;19.40;74.70;;;;;;5016643;28;20378;-67
2024/01/28 03:10:01;;;;;;;53.70;37.80;;;19.40;74.60;;;;;;5028698;28;20025;-67
2024/01/28 03:12:26;;;;;;;71.70;38.05;;;19.40;74.70;;;;;;5020680;28;20063;-67
2024/01/28 03:14:52;;;;;;;54.55;35.70;;;19.40;75.00;;;;;;5022182;28;20375;-67
2024/01/28 03:17:18;;;;;;;56.35;38.42;;;19.40;75.00;;;;;;5027685;28;20026;-68
2024/01/28 03:19:43;;;;;;;66.55;38.38;;;19.40;75.00;;;;;;5016514;28;20025;-66
2024/01/28 03:22:09;;;;;;;55.42;36.95;;;19.40;75.40;;;;;;5027334;28;20026;-67
2024/01/28 03:24:35;;;;;;;53.97;36.40;;;19.40;75.30;;;;;;5021506;28;20400;-68
2024/01/28 03:27:01;;;;;;;52.08;35.67;;;19.40;75.30;;;;;;5021020;28;20032;-65
2024/01/28 03:29:27;;;;;;;51.15;33.45;;;19.40;75.30;;;;;;5028427;28;20037;-67
2024/01/28 03:31:52;;;;;;;51.63;34.70;;;19.40;75.20;;;;;;5015763;28;20018;-68
2024/01/28 03:34:18;;;;;;;51.05;34.25;;;19.40;75.30;;;;;;5026491;28;20484;-66
2024/01/28 03:36:43;;;;;;;51.80;35.08;;;19.40;75.20;;;;;;5022371;28;20446;-66
2024/01/28 03:39:09;;;;;;;51.75;35.95;;;19.40;75.40;;;;;;5019483;28;20022;-67
2024/01/28 03:41:35;;;;;;;52.45;33.80;;;19.40;75.30;;;;;;5019012;28;20026;-67
2024/01/28 03:44:00;;;;;;;50.63;34.47;;;19.40;75.20;;;;;;5028700;28;20375;-66
2024/01/28 03:46:26;;;;;;;52.72;32.50;;;19.40;75.20;;;;;;5019888;28;20036;-66
2024/01/28 03:48:51;;;;;;;49.42;34.38;;;19.40;75.20;;;;;;5021812;28;20367;-68
2024/01/28 03:51:17;;;;;;;49.28;33.72;;;19.40;75.10;;;;;;5025936;28;20459;-67
2024/01/28 03:53:43;;;;;;;50.95;34.08;;;19.40;75.20;;;;;;5015974;28;20509;-68
2024/01/28 03:56:09;;;;;;;51.50;34.47;;;19.40;75.10;;;;;;5027447;28;20034;-67
2024/01/28 03:58:35;;;;;;;47.83;32.47;;;19.40;74.90;;;;;;5020806;28;20053;-67
2024/01/28 04:01:00;;;;;;;56.42;33.63;;;19.40;75.00;;;;;;5019532;28;20097;-66
2024/01/28 04:03:26;;;;;;;51.63;34.92;;;19.40;75.00;;;;;;5027926;28;20021;-67
2024/01/28 04:05:52;;;;;;;48.05;32.85;;;19.40;75.00;;;;;;5015445;28;20025;-65
2024/01/28 04:08:17;;;;;;;53.05;32.40;;;19.40;75.20;;;;;;5025873;28;20148;-68
2024/01/28 04:10:43;;;;;;;44.22;31.08;;;19.40;75.20;;;;;;5021267;28;20074;-67
2024/01/28 04:13:09;;;;;;;42.78;32.08;;;19.40;75.10;;;;;;5018927;28;20482;-67
2024/01/28 04:15:35;;;;;;;45.75;31.42;;;19.40;75.20;;;;;;5028378;28;20033;-68
2024/01/28 04:18:00;;;;;;;48.25;29.67;;;19.40;75.00;;;;;;5015956;28;20024;-68
2024/01/28 04:20:26;;;;;;;49.50;30.25;;;19.30;75.20;;;;;;5023685;28;20018;-68
2024/01/28 04:22:51;;;;;;;56.75;32.40;;;19.30;75.40;;;;;;5022873;28;20029;-67
2024/01/28 04:25:18;;;;;;;54.03;31.77;;;19.40;75.30;;;;;;5017410;28;20501;-68
2024/01/28 04:27:44;;;;;;;51.88;31.58;;;19.40;75.40;;;;;;5028328;28;20101;-69
2024/01/28 04:30:10;;;;;;;43.05;29.30;;;19.40;75.70;;;;;;5016150;28;20034;-67
2024/01/28 04:32:35;;;;;;;50.45;31.42;;;19.40;75.80;;;;;;5022967;28;20060;-68
2024/01/28 04:35:01;;;;;;;42.00;28.33;;;19.40;75.70;;;;;;5023774;28;20033;-68
2024/01/28 04:37:27;;;;;;;49.05;28.70;;;19.40;75.60;;;;;;5016088;28;20056;-67
2024/01/28 04:39:56;;;;;;;42.05;28.75;;;19.40;75.60;;;;;;5027749;28;20109;-66
2024/01/28 04:42:22;;;;;;;50.80;27.35;;;19.40;75.60;;;;;;5018246;28;20036;-68
2024/01/28 04:44:49;;;;;;;41.33;26.17;;;19.40;75.70;;;;;;5021190;28;20113;-67
2024/01/28 04:47:14;;;;;;;52.55;26.63;;;19.40;75.90;;;;;;5025484;28;20460;-68
2024/01/28 04:49:40;;;;;;;47.72;27.27;;;19.40;75.90;;;;;;5014760;28;20050;-67
2024/01/28 04:52:06;;;;;;;39.22;24.77;;;19.40;75.90;;;;;;5026435;28;20026;-68
2024/01/28 04:54:32;;;;;;;41.00;26.58;;;19.40;75.90;;;;;;5019890;28;20040;-68
2024/01/28 04:57:01;;;;;;;37.95;23.92;;;19.40;75.90;;;;;;5019604;28;20018;-68
2024/01/28 04:59:27;;;;;;;43.15;26.35;;;19.40;76.00;;;;;;5026868;28;20025;-67
2024/01/28 05:01:53;;;;;;;48.13;24.52;;;19.40;76.00;;;;;;5014224;28;20564;-69
2024/01/28 05:04:19;;;;;;;42.10;24.95;;;19.40;76.10;;;;;;5023263;28;20083;-69
2024/01/28 05:06:44;;;;;;;37.45;24.70;;;19.40;75.70;;;;;;5021415;28;20221;-69
2024/01/28 05:09:10;;;;;;;39.53;23.33;;;19.40;75.50;;;;;;5024655;28;20029;-69
2024/01/28 05:11:36;;;;;;;38.80;25.45;;;19.40;75.50;;;;;;5013389;28;20600;-68
2024/01/28 05:14:02;;;;;;;41.25;25.58;;;19.30;75.20;;;;;;5028142;22;20518;-64
2024/01/28 05:16:28;;;;;;;38.47;25.40;;;19.40;75.20;;;;;;4994403;28;20026;-64
2024/01/28 05:18:53;;;;;;;36.85;24.48;;;19.30;75.00;;;;;;4994093;28;20387;-64
2024/01/28 05:21:19;;;;;;;40.58;25.75;;;19.30;75.00;;;;;;4992304;28;20031;-65
2024/01/28 05:23:46;;;;;;;40.15;23.13;;;19.30;74.90;;;;;;4995931;28;20030;-66
2024/01/28 05:26:12;;;;;;;39.20;24.50;;;19.30;75.30;;;;;;4994788;28;20809;-65
2024/01/28 05:28:38;;;;;;;37.08;24.10;;;19.30;75.10;;;;;;4992808;28;20038;-65
2024/01/28 05:31:04;;;;;;;35.78;23.70;;;19.30;75.00;;;;;;4993283;28;20030;-65
2024/01/28 05:33:33;;;;;;;38.58;23.98;;;19.30;75.00;;;;;;4994196;28;20098;-63
2024/01/28 05:36:00;;;;;;;47.42;22.85;;;19.30;75.20;;;;;;4991857;28;20469;-62
2024/01/28 05:38:26;;;;;;;39.75;25.23;;;19.30;75.10;;;;;;4994098;28;20043;-61
2024/01/28 05:40:52;;;;;;;39.15;24.05;;;19.30;74.80;;;;;;4993266;28;20031;-62
2024/01/28 05:43:17;;;;;;;39.03;23.17;;;19.30;75.00;;;;;;4993937;28;20097;-64
2024/01/28 05:45:43;;;;;;;39.28;21.70;;;19.40;75.20;;;;;;4990371;28;20045;-62
2024/01/28 05:48:09;;;;;;;36.28;21.60;;;19.40;75.30;;;;;;4994050;28;20018;-64
2024/01/28 05:50:34;;;;;;;41.92;22.08;;;19.40;75.40;;;;;;4991139;28;20486;-65
2024/01/28 05:53:00;;;;;;;41.45;22.35;;;19.40;75.60;;;;;;4993981;28;20038;-62
2024/01/28 05:55:26;;;;;;;57.75;22.58;;;19.40;75.50;;;;;;4993783;28;20029;-62
2024/01/28 05:57:53;;;;;;;43.55;21.00;;;19.40;75.70;;;;;;4996795;28;20073;-61
2024/01/28 06:00:19;;;;;;;53.33;20.85;;;19.40;75.50;;;;;;4988117;28;20025;-64
2024/01/28 06:02:46;;;;;;;42.50;21.20;;;19.40;75.60;;;;;;4994070;28;20022;-63
2024/01/28 06:05:11;;;;;;;30.52;19.90;;;19.40;75.70;;;;;;4993721;28;20032;-62
2024/01/28 06:07:37;;;;;;;44.58;18.13;;;19.50;75.60;;;;;;4993645;28;20117;-63
2024/01/28 06:10:03;;;;;;;36.63;18.13;;;19.40;75.70;;;;;;4996780;28;20093;-63
2024/01/28 06:12:29;;;;;;;31.00;17.67;;;19.40;75.60;;;;;;4990754;28;20030;-64
2024/01/28 06:14:57;;;;;;;27.58;17.40;;;19.40;75.60;;;;;;5005100;28;20030;-64
2024/01/28 06:17:23;;;;;;;31.45;18.95;;;19.30;75.50;;;;;;4999144;28;20026;-62
2024/01/28 06:19:48;;;;;;;28.95;15.60;;;19.30;75.50;;;;;;5005406;28;20070;-63
2024/01/28 06:22:15;;;;;;;27.13;15.70;;;19.30;75.60;;;;;;5000340;28;20025;-63
2024/01/28 06:24:42;;;;;;;26.60;14.60;;;19.30;75.60;;;;;;5002540;28;20026;-63
2024/01/28 06:27:09;;;;;;;27.38;15.27;;;19.30;75.70;;;;;;5009795;28;20033;-63
2024/01/28 06:29:35;;;;;;;24.48;14.93;;;19.20;75.60;;;;;;4998022;28;20113;-63
2024/01/28 06:32:00;;;;;;;23.35;14.48;;;19.20;75.50;;;;;;5008956;28;20512;-63
2024/01/28 06:34:26;;;;;;;21.92;13.05;;;19.20;75.50;;;;;;5016272;28;20028;-63
2024/01/28 06:36:51;;;;;;;28.05;14.30;;;19.20;75.50;;;;;;5009477;28;20022;-63
2024/01/28 06:39:17;;;;;;;19.65;12.50;;;19.20;75.30;;;;;;5002865;28;20465;-63
2024/01/28 06:41:43;;;;;;;21.45;11.93;;;19.20;75.50;;;;;;5009567;28;20613;-63
2024/01/28 06:44:09;;;;;;;19.27;11.43;;;19.10;75.40;;;;;;4999525;28;20025;-64
2024/01/28 06:46:35;;;;;;;17.45;11.70;;;19.10;75.40;;;;;;5004340;28;20371;-64
2024/01/28 06:49:01;;;;;;;46.47;12.93;;;19.10;75.40;;;;;;5006436;28;20448;-62
2024/01/28 06:51:28;;;;;;;20.48;10.68;;;19.20;75.40;;;;;;4997483;28;20109;-62
2024/01/28 06:53:53;;;;;;;17.58;10.75;;;19.10;75.40;;;;;;5008334;28;20402;-64
2024/01/28 06:56:19;;;;;;;17.50;10.55;;;19.20;75.30;;;;;;5000574;28;20025;-64
2024/01/28 06:58:45;;;;;;;17.15;10.23;;;19.10;75.20;;;;;;5004085;28;20026;-64
2024/01/28 07:01:11;;;;;;;15.10;10.15;;;19.10;75.30;;;;;;5006652;28;20055;-63
2024/01/28 07:03:36;;;;;;;15.95;10.00;;;19.10;75.30;;;;;;4995554;28;20018;-62
2024/01/28 07:06:02;;;;;;;15.35;8.98;;;19.10;75.30;;;;;;5009858;28;20030;-62
2024/01/28 07:08:27;;;;;;;14.05;8.98;;;19.10;75.30;;;;;;4999056;28;20058;-63
2024/01/28 07:10:53;;;;;;;13.80;8.90;;;19.10;75.40;;;;;;5001893;28;20088;-63
2024/01/28 07:13:19;;;;;;;14.55;9.02;;;19.10;75.30;;;;;;5007933;28;20060;-63
2024/01/28 07:15:44;;;;;;;15.50;8.65;;;19.10;75.30;;;;;;4997137;28;20036;-63
2024/01/28 07:18:10;;;;;;;12.82;8.02;;;19.20;75.30;;;;;;5008259;28;20023;-63
2024/01/28 07:20:36;;;;;;;12.25;6.93;;;19.10;75.30;;;;;;5001465;28;20029;-63
2024/01/28 07:23:01;;;;;;;15.77;8.45;;;19.10;75.30;;;;;;5001206;28;20038;-64
2024/01/28 07:25:27;;;;;;;13.52;8.20;;;19.20;75.20;;;;;;5008795;28;20037;-63
2024/01/28 07:27:53;;;;;;;15.77;8.07;;;19.20;75.40;;;;;;4995978;28;20034;-64
2024/01/28 07:30:18;;;;;;;13.77;7.85;;;19.20;75.40;;;;;;5006172;28;20026;-64
2024/01/28 07:32:44;;;;;;;14.48;7.25;;;19.30;75.40;;;;;;5002808;28;20058;-64
2024/01/28 07:35:10;;;;;;;14.13;7.15;;;19.20;75.30;;;;;;5006428;28;20490;-65
2024/01/28 07:37:35;;;;;;;10.02;6.40;;;19.20;75.10;;;;;;4996954;28;20378;-64
2024/01/28 07:40:01;;;;;;;14.98;6.70;;;19.20;75.00;;;;;;5008343;28;20537;-63
2024/01/28 07:42:27;;;;;;;20.60;7.70;;;19.20;74.90;;;;;;4994689;28;20042;-64
2024/01/28 07:44:52;;;;;;;8.65;5.75;;;19.20;74.90;;;;;;4993735;28;20022;-64
2024/01/28 07:47:18;;;;;;;16.38;5.80;;;19.20;74.70;;;;;;4993791;28;20030;-64
2024/01/28 07:49:43;;;;;;;10.60;5.45;;;19.20;74.60;;;;;;5009227;28;20075;-64
2024/01/28 07:52:09;;;;;;;9.77;6.07;;;19.20;74.60;;;;;;4997088;28;20539;-63
2024/01/28 07:54:36;;;;;;;12.23;5.93;;;19.30;74.60;;;;;;4992558;28;20034;-64
2024/01/28 07:57:02;;;;;;;10.02;5.43;;;19.20;74.60;;;;;;5003309;28;20101;-63
2024/01/28 07:59:28;;;;;;;8.15;5.47;;;19.20;74.50;;;;;;4992639;28;20105;-64
2024/01/28 08:01:54;;;;;;;10.25;4.97;;;19.20;74.50;;;;;;5007120;28;20450;-65
2024/01/28 08:04:19;;;;;;;8.00;5.70;;;19.30;74.40;;;;;;4997481;28;20069;-65
2024/01/28 08:06:45;;;;;;;18.08;9.05;;;19.30;74.50;;;;;;5001017;28;20026;-64
2024/01/28 08:09:11;;;;;;;18.33;10.45;;;19.30;75.10;;;;;;5004479;28;20058;-62
2024/01/28 08:11:36;;;;;;;36.13;10.90;;;19.30;75.20;;;;;;4995658;28;20057;-65
2024/01/28 08:14:02;;;;;;;42.70;11.95;;;19.40;75.30;;;;;;4996101;28;20104;-64
2024/01/28 08:16:29;;;;;;;29.95;12.38;;;19.40;75.00;;;;;;5005085;28;20026;-64
2024/01/28 08:18:56;;;;;;;43.58;12.18;;;19.50;74.80;;;;;;5003665;28;20386;-64
2024/01/28 08:21:22;;;;;;;24.30;11.13;;;19.50;74.70;;;;;;4996803;28;20014;-64
2024/01/28 08:23:48;;;;;;;25.00;10.73;;;19.50;74.70;;;;;;5008363;28;20030;-64
2024/01/28 08:26:15;;;;;;;32.47;12.57;;;19.50;74.60;;;;;;4998068;28;20083;-64
2024/01/28 08:28:41;;;;;;;22.92;11.90;;;19.50;74.50;;;;;;5002858;28;20026;-65
2024/01/28 08:31:07;;;;;;;30.55;12.93;;;19.50;74.50;;;;;;5004367;28;20021;-64
2024/01/28 08:33:32;;;;;;;25.05;12.50;;;19.50;76.20;;;;;;5002022;28;20084;-63
2024/01/28 08:35:58;;;;;;;32.00;10.95;;;19.50;77.00;;;;;;4979423;28;20037;-63
2024/01/28 08:38:24;;;;;;;27.17;10.43;;;19.50;77.20;;;;;;4994264;28;20037;-64
2024/01/28 08:40:49;;;;;;;25.00;10.68;;;19.50;77.00;;;;;;4996787;28;20030;-64
2024/01/28 08:43:15;;;;;;;22.52;10.68;;;19.60;76.70;;;;;;4997994;28;20445;-64
2024/01/28 08:45:42;;;;;;;39.67;9.45;;;19.50;76.50;;;;;;5007285;28;20104;-63
2024/01/28 08:48:07;;;;;;;16.65;9.60;;;19.60;76.60;;;;;;4997001;28;20030;-63
2024/01/28 08:50:33;;;;;;;24.25;10.35;;;19.60;76.60;;;;;;5003112;28;20117;-62
2024/01/28 08:52:59;;;;;;;25.17;10.10;;;19.60;76.60;;;;;;5005819;28;20061;-63
2024/01/28 08:55:24;;;;;;;23.35;9.23;;;19.60;76.50;;;;;;4992474;28;20710;-61
2024/01/28 08:57:50;;;;;;;20.58;9.80;;;19.60;76.50;;;;;;5009668;28;20029;-65
2024/01/28 09:00:16;;;;;;;18.40;9.02;;;19.60;76.40;;;;;;4999293;28;20457;-64
2024/01/28 09:02:41;;;;;;;15.35;8.23;;;19.60;76.40;;;;;;5003990;28;20030;-64
2024/01/28 09:05:08;;;;;;;17.30;8.70;;;19.60;76.30;;;;;;5005253;28;20088;-65
2024/01/28 09:07:34;;;;;;;17.90;9.10;;;19.60;76.20;;;;;;4995218;28;20022;-65
2024/01/28 09:10:00;;;;;;;22.00;8.90;;;19.60;76.20;;;;;;5000896;28;20036;-66
2024/01/28 09:12:26;;;;;;;16.00;8.93;;;19.60;76.40;;;;;;5003907;28;20046;-67
2024/01/28 09:14:52;;;;;;;18.88;8.00;;;19.70;76.60;;;;;;5000741;28;20406;-67
2024/01/28 09:17:17;;;;;;;19.33;8.18;;;19.70;76.60;;;;;;4997321;28;20062;-64
2024/01/28 09:19:43;;;;;;;20.63;8.68;;;19.70;76.60;;;;;;5007627;28;20077;-64
2024/01/28 09:22:09;;;;;;;20.60;7.55;;;19.70;76.50;;;;;;4996262;28;20018;-65
2024/01/28 09:24:34;;;;;;;15.77;7.35;;;19.70;76.60;;;;;;5001832;28;20375;-64
2024/01/28 09:27:01;;;;;;;15.13;8.15;;;19.70;76.70;;;;;;5003338;28;20366;-65
2024/01/28 09:29:28;;;;;;;18.40;7.10;;;19.80;76.70;;;;;;4995537;28;20026;-64
2024/01/28 09:31:56;;;;;;;14.65;6.65;;;19.80;76.90;;;;;;5007286;28;20205;-65
2024/01/28 09:34:23;;;;;;;29.48;7.55;;;19.80;76.90;;;;;;4998157;28;20030;-67
2024/01/28 09:36:49;;;;;;;13.85;7.10;;;19.70;76.90;;;;;;5000817;28;20038;-65
2024/01/28 09:39:15;;;;;;;20.40;7.15;;;19.70;76.90;;;;;;5005112;28;20030;-66
2024/01/28 09:42:08;;;;;;;17.38;6.05;;;19.80;77.10;;;;;;4993721;28;20031;-66
2024/01/28 09:44:34;;;;;;;28.98;7.65;;;19.80;76.50;;;;;;4989283;28;20729;-67
2024/01/28 09:47:00;;;;;;;19.02;6.55;;;19.80;76.70;;;;;;4992323;28;20030;-67
2024/01/28 09:49:27;;;;;;;16.38;5.85;;;19.90;76.60;;;;;;4991483;28;20660;-66
2024/01/28 09:51:53;;;;;;;15.95;6.07;;;19.90;76.60;;;;;;4993742;28;20416;-66
2024/01/28 09:54:19;;;;;;;24.52;5.85;;;19.90;76.40;;;;;;4987142;28;20027;-67
2024/01/28 09:56:46;;;;;;;27.10;6.88;;;19.90;76.40;;;;;;4998091;28;20496;-64
2024/01/28 09:59:14;;;;;;;20.65;6.50;;;19.90;76.30;;;;;;5008873;28;20034;-64
2024/01/28 10:01:42;;;;;;;17.92;6.03;;;19.80;76.00;;;;;;4997785;28;20025;-64
2024/01/28 10:04:10;;;;;;;17.02;6.72;;;19.90;75.90;;;;;;5008757;28;20026;-64
2024/01/28 10:06:36;;;;;;;16.33;6.13;;;19.90;75.90;;;;;;5003626;28;20090;-65
2024/01/28 10:09:02;;;;;;;10.98;5.93;;;19.90;75.70;;;;;;5002560;28;20456;-65
2024/01/28 10:11:28;;;;;;;10.13;5.28;;;19.90;75.70;;;;;;5009799;28;20091;-65
2024/01/28 10:13:54;;;;;;;18.35;5.35;;;19.90;75.60;;;;;;4998217;28;20030;-66
2024/01/28 10:16:23;;;;;;;15.52;5.80;;;19.90;75.50;;;;;;5007004;28;20022;-67
2024/01/28 10:18:49;;;;;;;20.17;5.75;;;20.00;75.40;;;;;;4994840;28;20018;-65
2024/01/28 10:21:15;;;;;;;12.30;4.43;;;20.00;75.50;;;;;;4992627;28;20718;-64
2024/01/28 10:23:42;;;;;;;13.00;5.00;;;20.00;75.40;;;;;;5010748;28;20517;-65
2024/01/28 10:26:08;;;;;;;10.00;5.00;;;20.00;75.30;;;;;;4999403;28;20033;-65
2024/01/28 10:28:38;;;;;;;13.55;5.88;;;20.00;75.30;;;;;;5006039;28;20106;-65
2024/01/28 10:31:04;;;;;;;10.27;4.28;;;20.00;75.30;;;;;;5006152;28;20026;-65
2024/01/28 10:33:30;;;;;;;11.65;4.72;;;20.00;75.30;;;;;;4998160;28;20054;-65
2024/01/28 10:36:03;;;;;;;8.30;4.55;;;20.00;75.30;;;;;;5010853;28;20033;-66
2024/01/28 10:38:31;;;;;;;10.35;4.22;;;20.00;75.20;;;;;;5002359;28;20037;-64
2024/01/28 10:40:58;;;;;;;7.85;4.40;;;20.00;75.20;;;;;;5000936;28;20022;-65
2024/01/28 10:43:34;;;;;;;6.88;4.13;;;20.00;75.20;;;;;;5009287;28;20034;-65
2024/01/28 10:46:01;;;;;;;11.55;4.32;;;20.00;75.10;;;;;;4981437;28;20030;-66
2024/01/28 10:48:30;;;;;;;11.93;4.40;;;20.00;75.10;;;;;;4994401;28;20324;-65
2024/01/28 10:50:57;;;;;;;9.05;4.32;;;20.00;75.00;;;;;;4993590;28;20058;-65
2024/01/28 10:53:24;;;;;;;8.52;4.10;;;20.00;75.00;;;;;;4994114;28;20486;-65
2024/01/28 10:55:51;;;;;;;7.50;4.20;;;20.00;75.00;;;;;;4991502;28;20030;-64
2024/01/28 10:58:16;;;;;;;7.93;3.72;;;20.00;74.90;;;;;;4994273;28;20383;-66
2024/01/28 11:00:43;;;;;;;9.55;3.97;;;20.10;74.90;;;;;;5002852;28;20029;-67
2024/01/28 11:03:09;;;;;;;10.02;4.25;;;20.10;74.90;;;;;;5000642;28;20073;-66
2024/01/28 11:05:36;;;;;;;6.93;3.00;;;20.10;74.80;;;;;;5010305;28;20522;-67
2024/01/28 11:08:03;;;;;;;10.07;3.90;;;20.10;74.80;;;;;;4997443;28;20018;-65
2024/01/28 11:10:30;;;;;;;11.90;4.53;;;20.10;74.70;;;;;;5006122;28;20357;-66
2024/01/28 11:12:56;;;;;;;16.52;3.90;;;20.10;74.70;;;;;;5003062;28;20030;-64
2024/01/28 11:15:23;;;;;;;8.00;3.53;;;20.00;74.80;;;;;;4992501;28;20034;-65
2024/01/28 11:17:50;;;;;;;9.30;3.88;;;20.00;74.80;;;;;;4996031;28;20026;-65
2024/01/28 11:20:27;;;;;;;10.98;3.88;;;20.00;74.90;;;;;;4994718;28;20021;-65
2024/01/28 11:22:53;;;;;;;5.82;2.80;;;20.00;74.90;;;;;;4993234;28;20022;-65
2024/01/28 11:25:24;;;;;;;10.32;3.63;;;20.00;74.90;;;;;;4993767;28;20118;-65
2024/01/28 11:28:03;;;;;;;7.13;3.00;;;20.00;74.80;;;;;;4994280;28;20086;-65
2024/01/28 11:30:29;;;;;;;8.23;3.50;;;20.00;74.80;;;;;;4992234;28;20038;-65
2024/01/28 11:33:15;;;;;;;6.93;3.25;;;20.10;74.80;;;;;;4999060;28;20105;-64
2024/01/28 11:35:43;;;;;;;8.00;3.47;;;20.10;74.70;;;;;;4998416;28;20053;-64
2024/01/28 11:38:10;;;;;;;5.25;3.17;;;20.10;74.70;;;;;;4997916;28;20038;-64
2024/01/28 11:40:38;;;;;;;4.47;2.97;;;20.10;74.70;;;;;;4996937;28;20034;-64
2024/01/28 11:43:10;;;;;;;7.95;2.60;;;20.10;74.70;;;;;;4994916;28;20022;-63
2024/01/28 11:45:36;;;;;;;7.57;3.72;;;20.10;74.60;;;;;;4993649;28;20490;-63
2024/01/28 11:48:09;;;;;;;5.07;2.58;;;20.10;74.60;;;;;;4992332;28;20026;-64
2024/01/28 11:50:35;;;;;;;10.75;3.50;;;20.10;74.60;;;;;;5000814;28;20115;-66
2024/01/28 11:53:01;;;;;;;8.48;3.10;;;20.10;74.60;;;;;;5000814;28;20495;-65
2024/01/28 11:55:27;;;;;;;5.43;2.65;;;20.10;74.60;;;;;;4993635;28;20129;-65
2024/01/28 11:57:52;;;;;;;6.60;3.20;;;20.10;74.50;;;;;;5009657;28;20057;-65
2024/01/28 12:00:18;;;;;;;7.55;2.88;;;20.10;74.40;;;;;;4999281;28;20390;-65
2024/01/28 12:02:44;;;;;;;6.40;2.63;;;20.20;74.40;;;;;;5004154;28;20038;-66
2024/01/28 12:05:10;;;;;;;5.07;2.67;;;20.20;74.30;;;;;;5006621;28;20033;-66
2024/01/28 12:07:37;;;;;;;7.45;2.55;;;20.10;74.40;;;;;;4995339;28;20042;-65
2024/01/28 12:10:07;;;;;;;8.20;2.92;;;20.10;74.30;;;;;;5007852;28;20037;-65
2024/01/28 12:12:34;;;;;;;4.90;2.50;;;20.10;74.20;;;;;;4999438;28;20109;-65
2024/01/28 12:15:04;;;;;;;7.80;2.90;;;20.10;74.30;;;;;;5000488;28;20026;-65
2024/01/28 12:17:36;;;;;;;7.55;2.60;;;20.10;74.30;;;;;;5006975;28;20018;-65
2024/01/28 12:20:04;;;;;;;4.25;2.33;;;20.10;74.30;;;;;;4980278;28;20037;-63
2024/01/28 12:22:40;;;;;;;5.63;2.47;;;20.10;74.30;;;;;;5004781;28;20113;-65
2024/01/28 12:25:09;;;;;;;5.95;2.50;;;20.10;74.30;;;;;;5005213;28;20494;-66
2024/01/28 12:27:36;;;;;;;5.72;2.75;;;20.10;74.30;;;;;;4994742;28;20045;-66
2024/01/28 12:30:01;;;;;;;7.95;2.95;;;20.10;74.30;;;;;;5007596;28;20108;-66